createdAt,value
2022-12-28T00:00:22.905Z,4.26
2022-12-28T00:04:45.188Z,4.16
2022-12-28T00:08:47.501Z,4.22
2022-12-28T00:12:49.468Z,4.23
2022-12-28T00:16:51.387Z,4.18
2022-12-28T00:21:00.958Z,4.24
2022-12-28T00:25:03.093Z,4.17
2022-12-28T00:29:05.856Z,4.10
2022-12-28T00:33:08.276Z,4.05
2022-12-28T00:37:13.117Z,4.11
2022-12-28T00:41:15.267Z,4.25
2022-12-28T00:45:17.975Z,4.16
2022-12-28T00:49:19.994Z,4.30
2022-12-28T00:53:21.692Z,4.18
2022-12-28T00:57:23.596Z,4.21
2022-12-28T01:01:27.625Z,4.14
2022-12-28T01:05:29.787Z,4.03
2022-12-28T01:09:31.493Z,4.01
2022-12-28T01:13:33.493Z,4.08
2022-12-28T01:17:36.912Z,3.97
2022-12-28T01:21:40.683Z,4.08
2022-12-28T01:25:44.238Z,3.92
2022-12-28T01:29:46.332Z,3.80
2022-12-28T01:33:48.791Z,3.82
2022-12-28T01:37:50.687Z,3.76
2022-12-28T01:41:52.418Z,3.89
2022-12-28T01:45:54.589Z,3.88
2022-12-28T01:50:09.118Z,3.87
2022-12-28T01:54:11.554Z,3.77
2022-12-28T01:58:18.795Z,3.98
2022-12-28T02:02:22.087Z,3.94
2022-12-28T02:06:23.965Z,4.02
2022-12-28T02:10:40.749Z,4.11
2022-12-28T02:14:46.867Z,4.12
2022-12-28T02:18:49.915Z,3.89
2022-12-28T02:23:38.597Z,3.89
2022-12-28T02:28:01.855Z,3.98
2022-12-28T02:32:18.364Z,3.86
2022-12-28T02:36:26.874Z,3.71
2022-12-28T02:40:34.999Z,3.59
2022-12-28T02:44:56.028Z,3.70
2022-12-28T02:49:17.090Z,3.48
2022-12-28T02:53:40.437Z,3.49
2022-12-28T02:58:05.062Z,3.24
2022-12-28T03:02:28.587Z,3.18
2022-12-28T03:07:17.380Z,3.22
2022-12-28T03:11:27.437Z,2.96
2022-12-28T03:15:37.294Z,2.95
2022-12-28T03:20:06.220Z,2.72
2022-12-28T03:24:29.205Z,2.61
2022-12-28T03:28:53.167Z,2.43
2022-12-28T03:32:56.030Z,2.46
2022-12-28T03:37:00.865Z,2.46
2022-12-28T03:41:12.355Z,2.43
2022-12-28T03:45:44.991Z,2.27
2022-12-28T03:49:44.432Z,2.18
2022-12-28T03:53:47.974Z,2.06
2022-12-28T03:57:52.664Z,1.96
2022-12-28T04:01:59.156Z,2.04
2022-12-28T04:06:01.608Z,1.98
2022-12-28T04:10:03.807Z,1.88
2022-12-28T04:14:10.640Z,1.95
2022-12-28T04:18:16.951Z,1.83
2022-12-28T04:22:18.772Z,1.76
2022-12-28T04:26:21.216Z,1.61
2022-12-28T04:30:25.809Z,1.68
2022-12-28T04:34:27.986Z,1.35
2022-12-28T04:38:39.203Z,1.30
2022-12-28T04:42:41.166Z,1.40
2022-12-28T04:46:42.850Z,1.37
2022-12-28T04:50:44.876Z,1.06
2022-12-28T04:54:46.618Z,1.00
2022-12-28T04:58:49.165Z,0.78
2022-12-28T05:02:50.852Z,0.90
2022-12-28T05:06:52.896Z,0.79
2022-12-28T05:10:54.638Z,0.83
2022-12-28T05:14:56.633Z,0.96
2022-12-28T05:18:58.455Z,0.90
2022-12-28T05:23:00.384Z,0.84
2022-12-28T05:27:02.151Z,0.53
2022-12-28T05:31:07.915Z,0.55
2022-12-28T05:35:09.893Z,0.45
2022-12-28T05:39:11.873Z,0.22
2022-12-28T05:43:13.626Z,0.03
2022-12-28T05:47:15.749Z,0.04
2022-12-28T05:51:20.509Z,-0.01
2022-12-28T05:55:22.473Z,-0.15
2022-12-28T05:59:24.316Z,-0.19
2022-12-28T06:03:26.383Z,-0.15
2022-12-28T06:07:28.170Z,-0.07
2022-12-28T06:11:30.707Z,-0.13
2022-12-28T06:15:32.349Z,-0.01
2022-12-28T06:19:34.360Z,-0.06
2022-12-28T06:23:36.703Z,-0.04
2022-12-28T06:27:38.325Z,-0.05
2022-12-28T06:31:44.497Z,0.06
2022-12-28T06:35:46.236Z,0.04
2022-12-28T06:39:48.186Z,0.09
2022-12-28T06:43:50.742Z,0.07
2022-12-28T06:47:52.679Z,0.01
2022-12-28T06:51:54.608Z,-0.01
2022-12-28T06:55:59.237Z,0.07
2022-12-28T07:00:01.043Z,-0.05
2022-12-28T07:04:04.722Z,0.10
2022-12-28T07:08:12.281Z,0.20
2022-12-28T07:12:14.600Z,0.24
2022-12-28T07:16:19.760Z,0.28
2022-12-28T07:20:21.880Z,0.34
2022-12-28T07:24:23.872Z,0.26
2022-12-28T07:28:25.552Z,0.32
2022-12-28T07:32:27.571Z,0.41
2022-12-28T07:36:31.956Z,0.44
2022-12-28T07:40:33.606Z,0.40
2022-12-28T07:44:38.193Z,0.59
2022-12-28T07:48:41.356Z,0.58
2022-12-28T07:52:43.307Z,0.68
2022-12-28T07:56:45.266Z,0.79
2022-12-28T08:00:47.241Z,0.93
2022-12-28T08:04:52.275Z,0.86
2022-12-28T08:08:58.259Z,0.98
2022-12-28T08:13:01.157Z,1.05
2022-12-28T08:17:03.107Z,1.17
2022-12-28T08:21:07.721Z,1.17
2022-12-28T08:25:09.906Z,1.36
2022-12-28T08:29:15.522Z,1.37
2022-12-28T08:33:17.173Z,1.42
2022-12-28T08:37:20.314Z,1.51
2022-12-28T08:41:23.906Z,1.49
2022-12-28T08:45:26.478Z,1.38
2022-12-28T08:49:28.170Z,1.58
2022-12-28T08:53:30.343Z,1.81
2022-12-28T08:57:33.441Z,1.88
2022-12-28T09:01:44.239Z,1.88
2022-12-28T09:05:47.919Z,2.09
2022-12-28T09:09:53.231Z,2.28
2022-12-28T09:13:55.250Z,2.18
2022-12-28T09:17:56.894Z,2.50
2022-12-28T09:21:59.093Z,2.39
2022-12-28T09:26:11.314Z,2.74
2022-12-28T09:30:13.474Z,2.96
2022-12-28T09:38:37.514Z,3.06
2022-12-28T09:42:42.869Z,3.14
2022-12-28T09:47:12.478Z,3.34
2022-12-28T09:51:14.985Z,3.41
2022-12-28T09:55:18.719Z,3.52
2022-12-28T09:59:24.309Z,3.72
2022-12-28T10:03:33.286Z,3.70
2022-12-28T10:07:37.303Z,3.95
2022-12-28T10:11:41.889Z,3.89
2022-12-28T10:15:44.037Z,4.05
2022-12-28T10:19:47.548Z,4.35
2022-12-28T10:28:16.845Z,4.63
2022-12-28T10:32:19.384Z,4.65
2022-12-28T10:36:22.894Z,4.93
2022-12-28T10:40:29.640Z,4.77
2022-12-28T10:44:41.598Z,4.74
2022-12-28T10:48:51.561Z,4.54
2022-12-28T10:52:58.441Z,4.64
2022-12-28T10:57:00.406Z,4.51
2022-12-28T11:01:13.768Z,4.57
2022-12-28T11:05:24.445Z,4.63
2022-12-28T11:09:28.738Z,4.31
2022-12-28T11:13:30.536Z,4.51
2022-12-28T11:17:37.596Z,4.47
2022-12-28T11:21:41.115Z,4.30
2022-12-28T11:25:43.193Z,4.36
2022-12-28T11:29:47.814Z,4.33
2022-12-28T11:33:53.666Z,4.26
2022-12-28T11:37:58.372Z,4.22
2022-12-28T11:46:23.350Z,4.22
2022-12-28T11:50:34.743Z,4.24
2022-12-28T11:54:39.292Z,4.26
2022-12-28T11:58:41.259Z,4.32
2022-12-28T12:02:49.626Z,4.30
2022-12-28T12:06:51.782Z,4.39
2022-12-28T12:11:25.681Z,4.40
2022-12-28T12:15:48.280Z,4.43
2022-12-28T12:20:01.532Z,4.21
2022-12-28T12:24:26.799Z,4.41
2022-12-28T12:28:39.317Z,4.36
2022-12-28T12:33:00.525Z,4.42
2022-12-28T12:37:15.618Z,4.42
2022-12-28T12:41:30.432Z,4.33
2022-12-28T12:46:00.305Z,4.38
2022-12-28T12:50:07.855Z,4.31
2022-12-28T12:54:26.877Z,4.39
2022-12-28T12:58:51.234Z,4.37
2022-12-28T13:03:43.927Z,4.29
2022-12-28T13:07:46.111Z,4.40
2022-12-28T13:11:48.309Z,4.47
2022-12-28T13:15:50.422Z,4.45
2022-12-28T13:20:08.238Z,4.33
2022-12-28T13:24:18.653Z,4.32
2022-12-28T13:28:22.598Z,4.35
2022-12-28T13:32:37.820Z,4.48
2022-12-28T13:36:58.332Z,4.27
2022-12-28T13:41:01.991Z,4.32
2022-12-28T13:45:06.230Z,4.47
2022-12-28T13:49:09.054Z,4.44
2022-12-28T13:53:20.636Z,4.30
2022-12-28T14:01:50.872Z,4.36
2022-12-28T14:05:59.242Z,4.24
2022-12-28T14:10:02.860Z,4.13
2022-12-28T14:14:05.577Z,4.14
2022-12-28T14:18:08.526Z,4.10
2022-12-28T14:22:29.269Z,3.84
2022-12-28T14:26:31.718Z,3.88
2022-12-28T14:30:43.084Z,3.85
2022-12-28T14:34:46.819Z,3.89
2022-12-28T14:38:57.201Z,3.85
2022-12-28T14:43:32.503Z,3.88
2022-12-28T14:47:44.513Z,3.86
2022-12-28T14:51:46.231Z,4.03
2022-12-28T14:56:06.208Z,4.05
2022-12-28T15:00:25.794Z,4.12
2022-12-28T15:04:36.948Z,3.98
2022-12-28T15:08:39.102Z,4.06
2022-12-28T15:12:40.810Z,4.06
2022-12-28T15:16:42.845Z,4.20
2022-12-28T15:20:44.672Z,4.10
2022-12-28T15:24:48.804Z,4.32
2022-12-28T15:28:51.167Z,4.21
2022-12-28T15:32:53.191Z,4.18
2022-12-28T15:36:54.857Z,4.28
2022-12-28T15:40:56.830Z,4.34
2022-12-28T15:44:58.580Z,4.23
2022-12-28T15:49:05.333Z,4.24
2022-12-28T15:53:07.005Z,4.24
2022-12-28T15:57:11.781Z,4.34
2022-12-28T16:01:13.578Z,4.34
2022-12-28T16:05:15.656Z,4.34
2022-12-28T16:09:17.575Z,4.35
2022-12-28T16:13:19.504Z,4.43
2022-12-28T16:17:21.187Z,4.38
2022-12-28T16:21:24.874Z,4.33
2022-12-28T16:25:26.593Z,4.46
2022-12-28T16:29:28.574Z,4.45
2022-12-28T16:33:30.615Z,4.53
2022-12-28T16:37:32.543Z,4.37
2022-12-28T16:41:38.164Z,4.35
2022-12-28T16:45:43.132Z,4.47
2022-12-28T16:49:44.789Z,4.55
2022-12-28T16:53:46.787Z,4.53
2022-12-28T16:57:48.716Z,4.54
2022-12-28T17:01:52.496Z,4.58
2022-12-28T17:05:54.575Z,4.58
2022-12-28T17:09:56.584Z,4.69
2022-12-28T17:14:07.034Z,4.80
2022-12-28T17:18:09.907Z,4.76
2022-12-28T17:22:11.839Z,4.88
2022-12-28T17:26:13.803Z,4.91
2022-12-28T17:30:15.566Z,4.96
2022-12-28T17:34:19.753Z,4.91
2022-12-28T17:38:21.421Z,4.94
2022-12-28T17:42:23.712Z,4.95
2022-12-28T17:46:28.160Z,4.89
2022-12-28T17:50:30.095Z,4.99
2022-12-28T17:54:32.268Z,4.97
2022-12-28T17:58:34.684Z,5.11
2022-12-28T18:02:36.505Z,5.05
2022-12-28T18:06:39.254Z,5.00
2022-12-28T18:10:41.049Z,4.97
2022-12-28T18:14:43.281Z,5.03
2022-12-28T18:18:45.714Z,4.99
2022-12-28T18:22:47.733Z,5.06
2022-12-28T18:26:49.714Z,5.09
2022-12-28T18:30:54.297Z,5.12
2022-12-28T18:34:58.249Z,5.16
2022-12-28T18:39:00.168Z,5.17
2022-12-28T18:43:01.996Z,5.18
2022-12-28T18:47:03.978Z,5.25
2022-12-28T18:51:12.808Z,5.17
2022-12-28T18:55:15.287Z,5.13
2022-12-28T18:59:16.973Z,5.17
2022-12-28T19:03:19.262Z,5.08
2022-12-28T19:07:21.097Z,5.15
2022-12-28T19:11:23.055Z,5.19
2022-12-28T19:15:24.806Z,5.16
2022-12-28T19:19:26.824Z,5.11
2022-12-28T19:23:28.523Z,5.17
2022-12-28T19:27:30.583Z,5.27
2022-12-28T19:31:33.333Z,5.26
2022-12-28T19:35:35.312Z,5.21
2022-12-28T19:39:37.029Z,5.27
2022-12-28T19:43:40.062Z,5.22
2022-12-28T19:47:41.692Z,5.36
2022-12-28T19:51:43.690Z,5.42
2022-12-28T19:55:45.336Z,5.35
2022-12-28T19:59:48.129Z,5.39
2022-12-28T20:03:49.903Z,5.43
2022-12-28T20:07:52.061Z,5.42
2022-12-28T20:11:53.721Z,5.57
2022-12-28T20:15:55.778Z,5.56
2022-12-28T20:19:57.589Z,5.63
2022-12-28T20:24:01.559Z,5.76
2022-12-28T20:28:03.432Z,5.67
2022-12-28T20:32:05.618Z,5.61
2022-12-28T20:36:13.015Z,5.55
2022-12-28T20:40:15.091Z,5.62
2022-12-28T20:44:22.184Z,5.62
2022-12-28T20:48:24.776Z,5.71
2022-12-28T20:52:26.566Z,5.69
2022-12-28T20:56:28.625Z,5.75
2022-12-28T21:00:30.377Z,5.61
2022-12-28T21:04:32.397Z,5.57
2022-12-28T21:08:35.079Z,5.63
2022-12-28T21:12:37.069Z,5.53
2022-12-28T21:16:38.725Z,5.57
2022-12-28T21:20:48.099Z,5.64
2022-12-28T21:24:49.681Z,5.53
2022-12-28T21:28:51.686Z,5.50
2022-12-28T21:32:53.998Z,5.58
2022-12-28T21:36:56.379Z,5.51
2022-12-28T21:41:04.464Z,5.46
2022-12-28T21:45:07.461Z,5.56
2022-12-28T21:49:09.571Z,5.60
2022-12-28T21:53:11.635Z,5.53
2022-12-28T21:57:13.457Z,5.52
2022-12-28T22:01:34.286Z,5.55
2022-12-28T22:05:54.796Z,5.62
2022-12-28T22:10:15.340Z,5.63
2022-12-28T22:14:16.925Z,5.65
2022-12-28T22:22:43.686Z,5.74
2022-12-28T22:26:45.730Z,5.72
2022-12-28T22:30:47.415Z,5.75
2022-12-28T22:34:49.373Z,5.80
2022-12-28T22:38:51.092Z,5.74
2022-12-28T22:42:53.307Z,5.79
2022-12-28T22:46:55.253Z,5.83
2022-12-28T22:51:02.229Z,5.82
2022-12-28T22:55:04.291Z,5.89
2022-12-28T22:59:09.654Z,5.86
2022-12-28T23:03:15.418Z,5.89
2022-12-28T23:07:17.962Z,6.01
2022-12-28T23:11:38.160Z,5.90
2022-12-28T23:15:40.130Z,5.17
2022-12-28T23:20:04.915Z,5.10
2022-12-28T23:24:30.864Z,5.22
2022-12-28T23:28:33.588Z,5.19
2022-12-28T23:32:35.598Z,5.14
2022-12-28T23:36:37.279Z,5.77
2022-12-28T23:40:40.126Z,5.77
2022-12-28T23:44:42.152Z,5.40
2022-12-28T23:48:44.080Z,5.27
2022-12-28T23:52:45.821Z,5.22
2022-12-28T23:56:49.077Z,5.67
